Terminal Aerodrome Forecast
Issued by NWS Shreveport, LA

Home | Current Version | Previous Version | Text Only | Print | Product List | Glossary On
Versions: 1 2 3 4 5 6 7 8 9 10 11 12 13 14 15 16 17 18 19 20
147
FTUS44 KSHV 231744
TAFMLU
TAF
KMLU 231744Z 2318/2418 VRB04KT P6SM BKN045
     FM240000 VRB03KT P6SM SCT050
     FM241000 VRB03KT 4SM BR SKC
     FM241300 09003KT P6SM SCT040
     FM241700 13006KT P6SM BKN045=

USA.gov is the U.S. government's official web portal to all federal, state and local government web resources and services.